sensor_id;sensor_type;location;lat;lon;timestamp;P1;durP1;ratioP1;P2;durP2;ratioP2
29302;SDS011;60019;45.556;12.004;2022-10-28T00:03:31;21.20;;;13.52;;
29302;SDS011;60019;45.556;12.004;2022-10-28T00:09:33;20.30;;;13.20;;
29302;SDS011;60019;45.556;12.004;2022-10-28T00:15:35;20.40;;;12.43;;
29302;SDS011;60019;45.556;12.004;2022-10-28T00:21:37;17.15;;;10.95;;
29302;SDS011;60019;45.556;12.004;2022-10-28T00:27:39;20.42;;;11.65;;
29302;SDS011;60019;45.556;12.004;2022-10-28T00:33:44;14.98;;;10.55;;
29302;SDS011;60019;45.556;12.004;2022-10-28T00:39:46;16.95;;;10.45;;
29302;SDS011;60019;45.556;12.004;2022-10-28T00:45:47;20.35;;;10.98;;
29302;SDS011;60019;45.556;12.004;2022-10-28T00:51:50;15.90;;;10.60;;
29302;SDS011;60019;45.556;12.004;2022-10-28T00:57:53;17.48;;;11.02;;
29302;SDS011;60019;45.556;12.004;2022-10-28T01:03:58;18.27;;;12.25;;
29302;SDS011;60019;45.556;12.004;2022-10-28T01:10:01;19.75;;;11.38;;
29302;SDS011;60019;45.556;12.004;2022-10-28T01:16:10;16.20;;;11.35;;
29302;SDS011;60019;45.556;12.004;2022-10-28T01:22:22;20.40;;;12.50;;
29302;SDS011;60019;45.556;12.004;2022-10-28T01:28:28;15.77;;;11.38;;
29302;SDS011;60019;45.556;12.004;2022-10-28T01:34:56;18.48;;;11.80;;
29302;SDS011;60019;45.556;12.004;2022-10-28T01:47:15;18.80;;;11.65;;
29302;SDS011;60019;45.556;12.004;2022-10-28T01:53:20;15.13;;;9.65;;
29302;SDS011;60019;45.556;12.004;2022-10-28T01:59:24;16.67;;;10.27;;
29302;SDS011;60019;45.556;12.004;2022-10-28T02:24:07;13.55;;;9.32;;
29302;SDS011;60019;45.556;12.004;2022-10-28T02:30:18;12.70;;;10.57;;
29302;SDS011;60019;45.556;12.004;2022-10-28T02:36:21;12.18;;;9.70;;
29302;SDS011;60019;45.556;12.004;2022-10-28T02:42:31;18.08;;;9.48;;
29302;SDS011;60019;45.556;12.004;2022-10-28T02:48:35;15.35;;;10.18;;
29302;SDS011;60019;45.556;12.004;2022-10-28T02:54:39;14.18;;;9.60;;
29302;SDS011;60019;45.556;12.004;2022-10-28T03:00:45;11.73;;;8.70;;
29302;SDS011;60019;45.556;12.004;2022-10-28T03:06:49;14.30;;;8.85;;
29302;SDS011;60019;45.556;12.004;2022-10-28T03:12:51;14.25;;;8.48;;
29302;SDS011;60019;45.556;12.004;2022-10-28T03:18:53;19.02;;;9.40;;
29302;SDS011;60019;45.556;12.004;2022-10-28T03:24:54;13.93;;;8.48;;
29302;SDS011;60019;45.556;12.004;2022-10-28T03:30:56;11.98;;;8.15;;
29302;SDS011;60019;45.556;12.004;2022-10-28T03:36:58;14.65;;;9.18;;
29302;SDS011;60019;45.556;12.004;2022-10-28T03:43:00;13.13;;;8.57;;
29302;SDS011;60019;45.556;12.004;2022-10-28T03:49:02;13.95;;;9.38;;
29302;SDS011;60019;45.556;12.004;2022-10-28T03:55:05;12.27;;;8.02;;
29302;SDS011;60019;45.556;12.004;2022-10-28T04:01:06;14.60;;;9.18;;
29302;SDS011;60019;45.556;12.004;2022-10-28T04:07:08;13.52;;;9.52;;
29302;SDS011;60019;45.556;12.004;2022-10-28T04:13:10;14.65;;;9.27;;
29302;SDS011;60019;45.556;12.004;2022-10-28T04:19:12;12.00;;;9.40;;
29302;SDS011;60019;45.556;12.004;2022-10-28T04:25:14;16.90;;;9.48;;
29302;SDS011;60019;45.556;12.004;2022-10-28T04:31:15;15.95;;;11.32;;
29302;SDS011;60019;45.556;12.004;2022-10-28T04:37:17;15.45;;;8.93;;
29302;SDS011;60019;45.556;12.004;2022-10-28T04:43:19;14.32;;;9.52;;
29302;SDS011;60019;45.556;12.004;2022-10-28T04:49:21;12.77;;;7.97;;
29302;SDS011;60019;45.556;12.004;2022-10-28T04:55:22;14.02;;;8.35;;
29302;SDS011;60019;45.556;12.004;2022-10-28T05:01:24;11.20;;;8.43;;
29302;SDS011;60019;45.556;12.004;2022-10-28T05:07:26;13.35;;;8.10;;
29302;SDS011;60019;45.556;12.004;2022-10-28T05:13:28;13.20;;;8.15;;
29302;SDS011;60019;45.556;12.004;2022-10-28T05:19:29;13.20;;;8.63;;
29302;SDS011;60019;45.556;12.004;2022-10-28T05:25:31;11.98;;;8.23;;
29302;SDS011;60019;45.556;12.004;2022-10-28T05:31:33;10.93;;;7.95;;
29302;SDS011;60019;45.556;12.004;2022-10-28T05:37:35;15.15;;;9.00;;
29302;SDS011;60019;45.556;12.004;2022-10-28T05:43:36;13.48;;;8.57;;
29302;SDS011;60019;45.556;12.004;2022-10-28T05:49:38;11.20;;;7.95;;
29302;SDS011;60019;45.556;12.004;2022-10-28T05:55:40;13.65;;;8.55;;
29302;SDS011;60019;45.556;12.004;2022-10-28T06:01:42;12.52;;;8.38;;
29302;SDS011;60019;45.556;12.004;2022-10-28T06:07:43;14.60;;;8.77;;
29302;SDS011;60019;45.556;12.004;2022-10-28T06:13:45;12.20;;;7.63;;
29302;SDS011;60019;45.556;12.004;2022-10-28T06:19:47;13.65;;;8.75;;
29302;SDS011;60019;45.556;12.004;2022-10-28T06:25:49;14.60;;;7.03;;
29302;SDS011;60019;45.556;12.004;2022-10-28T06:31:51;11.00;;;7.32;;
29302;SDS011;60019;45.556;12.004;2022-10-28T06:37:53;17.52;;;8.45;;
29302;SDS011;60019;45.556;12.004;2022-10-28T06:43:55;14.55;;;7.63;;
29302;SDS011;60019;45.556;12.004;2022-10-28T06:49:57;10.88;;;7.22;;
29302;SDS011;60019;45.556;12.004;2022-10-28T06:55:59;9.05;;;6.65;;
29302;SDS011;60019;45.556;12.004;2022-10-28T07:02:00;11.98;;;7.05;;
29302;SDS011;60019;45.556;12.004;2022-10-28T07:08:03;11.68;;;6.78;;
29302;SDS011;60019;45.556;12.004;2022-10-28T07:14:05;9.48;;;7.20;;
29302;SDS011;60019;45.556;12.004;2022-10-28T07:20:07;12.00;;;6.47;;
29302;SDS011;60019;45.556;12.004;2022-10-28T07:26:09;10.07;;;6.43;;
29302;SDS011;60019;45.556;12.004;2022-10-28T07:32:11;11.15;;;7.35;;
29302;SDS011;60019;45.556;12.004;2022-10-28T07:38:13;8.90;;;6.57;;
29302;SDS011;60019;45.556;12.004;2022-10-28T07:44:15;12.02;;;6.10;;
29302;SDS011;60019;45.556;12.004;2022-10-28T07:50:16;9.13;;;6.22;;
29302;SDS011;60019;45.556;12.004;2022-10-28T07:56:18;8.68;;;6.40;;
29302;SDS011;60019;45.556;12.004;2022-10-28T08:02:21;10.75;;;7.03;;
29302;SDS011;60019;45.556;12.004;2022-10-28T08:08:23;8.75;;;6.18;;
29302;SDS011;60019;45.556;12.004;2022-10-28T08:14:25;9.13;;;5.93;;
29302;SDS011;60019;45.556;12.004;2022-10-28T08:20:27;10.02;;;6.18;;
29302;SDS011;60019;45.556;12.004;2022-10-28T08:26:28;9.43;;;5.97;;
29302;SDS011;60019;45.556;12.004;2022-10-28T08:32:30;8.15;;;5.50;;
29302;SDS011;60019;45.556;12.004;2022-10-28T08:38:32;8.27;;;5.63;;
29302;SDS011;60019;45.556;12.004;2022-10-28T08:50:49;11.52;;;6.07;;
29302;SDS011;60019;45.556;12.004;2022-10-28T08:56:53;7.47;;;5.45;;
29302;SDS011;60019;45.556;12.004;2022-10-28T09:09:16;6.82;;;4.90;;
29302;SDS011;60019;45.556;12.004;2022-10-28T09:40:24;12.15;;;4.95;;
29302;SDS011;60019;45.556;12.004;2022-10-28T09:46:26;8.10;;;5.15;;
29302;SDS011;60019;45.556;12.004;2022-10-28T09:52:29;7.32;;;5.38;;
29302;SDS011;60019;45.556;12.004;2022-10-28T09:58:34;8.07;;;5.38;;
29302;SDS011;60019;45.556;12.004;2022-10-28T10:04:36;6.68;;;4.97;;
29302;SDS011;60019;45.556;12.004;2022-10-28T10:16:58;9.50;;;5.63;;
29302;SDS011;60019;45.556;12.004;2022-10-28T10:23:00;12.10;;;6.05;;
29302;SDS011;60019;45.556;12.004;2022-10-28T10:29:02;7.93;;;5.40;;
29302;SDS011;60019;45.556;12.004;2022-10-28T10:35:21;7.43;;;5.47;;
29302;SDS011;60019;45.556;12.004;2022-10-28T10:47:34;10.20;;;5.60;;
29302;SDS011;60019;45.556;12.004;2022-10-28T10:53:37;9.13;;;5.90;;
29302;SDS011;60019;45.556;12.004;2022-10-28T10:59:38;13.43;;;5.80;;
29302;SDS011;60019;45.556;12.004;2022-10-28T11:05:46;8.48;;;5.50;;
29302;SDS011;60019;45.556;12.004;2022-10-28T11:11:48;10.93;;;6.05;;
29302;SDS011;60019;45.556;12.004;2022-10-28T11:30:15;6.72;;;5.30;;
29302;SDS011;60019;45.556;12.004;2022-10-28T11:48:42;6.05;;;4.60;;
29302;SDS011;60019;45.556;12.004;2022-10-28T11:54:54;6.50;;;4.85;;
29302;SDS011;60019;45.556;12.004;2022-10-28T12:19:18;6.38;;;4.65;;
29302;SDS011;60019;45.556;12.004;2022-10-28T12:25:23;10.65;;;6.30;;
29302;SDS011;60019;45.556;12.004;2022-10-28T12:31:33;9.20;;;5.03;;
29302;SDS011;60019;45.556;12.004;2022-10-28T12:38:11;6.93;;;4.95;;
29302;SDS011;60019;45.556;12.004;2022-10-28T12:44:07;6.80;;;5.00;;
29302;SDS011;60019;45.556;12.004;2022-10-28T12:50:18;7.43;;;4.63;;
29302;SDS011;60019;45.556;12.004;2022-10-28T12:56:21;6.40;;;4.63;;
29302;SDS011;60019;45.556;12.004;2022-10-28T13:02:29;9.00;;;5.22;;
29302;SDS011;60019;45.556;12.004;2022-10-28T13:27:02;6.03;;;4.78;;
29302;SDS011;60019;45.556;12.004;2022-10-28T13:33:06;5.85;;;4.53;;
29302;SDS011;60019;45.556;12.004;2022-10-28T13:39:37;7.03;;;5.47;;
29302;SDS011;60019;45.556;12.004;2022-10-28T13:51:45;6.88;;;4.38;;
29302;SDS011;60019;45.556;12.004;2022-10-28T13:57:47;8.88;;;5.07;;
29302;SDS011;60019;45.556;12.004;2022-10-28T14:03:50;8.55;;;4.65;;
29302;SDS011;60019;45.556;12.004;2022-10-28T14:09:53;9.50;;;5.22;;
29302;SDS011;60019;45.556;12.004;2022-10-28T14:22:27;8.35;;;4.90;;
29302;SDS011;60019;45.556;12.004;2022-10-28T14:34:33;11.77;;;5.65;;
29302;SDS011;60019;45.556;12.004;2022-10-28T14:40:46;7.18;;;5.03;;
29302;SDS011;60019;45.556;12.004;2022-10-28T14:53:00;8.57;;;5.35;;
29302;SDS011;60019;45.556;12.004;2022-10-28T15:05:28;9.90;;;5.97;;
29302;SDS011;60019;45.556;12.004;2022-10-28T15:11:32;11.55;;;5.63;;
29302;SDS011;60019;45.556;12.004;2022-10-28T15:17:37;9.10;;;6.35;;
29302;SDS011;60019;45.556;12.004;2022-10-28T15:23:39;7.05;;;5.20;;
29302;SDS011;60019;45.556;12.004;2022-10-28T15:29:41;13.63;;;5.28;;
29302;SDS011;60019;45.556;12.004;2022-10-28T15:35:43;7.68;;;6.30;;
29302;SDS011;60019;45.556;12.004;2022-10-28T15:41:46;9.23;;;5.88;;
29302;SDS011;60019;45.556;12.004;2022-10-28T15:47:52;10.48;;;6.50;;
29302;SDS011;60019;45.556;12.004;2022-10-28T15:54:08;10.88;;;5.80;;
29302;SDS011;60019;45.556;12.004;2022-10-28T16:06:33;11.02;;;7.03;;
29302;SDS011;60019;45.556;12.004;2022-10-28T16:12:36;9.43;;;5.47;;
29302;SDS011;60019;45.556;12.004;2022-10-28T16:18:39;10.45;;;6.47;;
29302;SDS011;60019;45.556;12.004;2022-10-28T16:24:42;8.88;;;5.88;;
29302;SDS011;60019;45.556;12.004;2022-10-28T16:30:44;12.52;;;6.55;;
29302;SDS011;60019;45.556;12.004;2022-10-28T16:36:46;11.77;;;6.60;;
29302;SDS011;60019;45.556;12.004;2022-10-28T16:42:47;14.57;;;6.68;;
29302;SDS011;60019;45.556;12.004;2022-10-28T16:48:49;12.52;;;6.72;;
29302;SDS011;60019;45.556;12.004;2022-10-28T16:54:51;14.07;;;8.05;;
29302;SDS011;60019;45.556;12.004;2022-10-28T17:00:53;9.35;;;7.80;;
29302;SDS011;60019;45.556;12.004;2022-10-28T17:06:55;12.07;;;8.13;;
29302;SDS011;60019;45.556;12.004;2022-10-28T17:12:57;11.82;;;7.70;;
29302;SDS011;60019;45.556;12.004;2022-10-28T17:18:58;13.43;;;8.07;;
29302;SDS011;60019;45.556;12.004;2022-10-28T17:25:00;19.65;;;8.75;;
29302;SDS011;60019;45.556;12.004;2022-10-28T17:31:06;13.20;;;7.97;;
29302;SDS011;60019;45.556;12.004;2022-10-28T17:37:08;12.15;;;7.82;;
29302;SDS011;60019;45.556;12.004;2022-10-28T17:43:10;18.55;;;9.98;;
29302;SDS011;60019;45.556;12.004;2022-10-28T17:49:12;15.00;;;9.45;;
29302;SDS011;60019;45.556;12.004;2022-10-28T17:55:13;19.00;;;9.95;;
29302;SDS011;60019;45.556;12.004;2022-10-28T18:01:15;20.63;;;10.52;;
29302;SDS011;60019;45.556;12.004;2022-10-28T18:07:17;15.93;;;10.05;;
29302;SDS011;60019;45.556;12.004;2022-10-28T18:13:19;19.20;;;11.73;;
29302;SDS011;60019;45.556;12.004;2022-10-28T18:19:21;17.65;;;10.55;;
29302;SDS011;60019;45.556;12.004;2022-10-28T18:25:23;17.00;;;11.00;;
29302;SDS011;60019;45.556;12.004;2022-10-28T18:31:24;14.48;;;10.40;;
29302;SDS011;60019;45.556;12.004;2022-10-28T18:37:26;17.48;;;11.30;;
29302;SDS011;60019;45.556;12.004;2022-10-28T18:43:28;14.30;;;9.98;;
29302;SDS011;60019;45.556;12.004;2022-10-28T18:49:30;30.58;;;19.13;;
29302;SDS011;60019;45.556;12.004;2022-10-28T18:55:32;40.85;;;23.95;;
29302;SDS011;60019;45.556;12.004;2022-10-28T19:01:33;28.60;;;17.95;;
29302;SDS011;60019;45.556;12.004;2022-10-28T19:07:35;29.85;;;16.33;;
29302;SDS011;60019;45.556;12.004;2022-10-28T19:13:38;26.67;;;15.32;;
29302;SDS011;60019;45.556;12.004;2022-10-28T19:19:40;27.30;;;14.73;;
29302;SDS011;60019;45.556;12.004;2022-10-28T19:25:49;23.08;;;13.65;;
29302;SDS011;60019;45.556;12.004;2022-10-28T19:31:53;24.50;;;14.70;;
29302;SDS011;60019;45.556;12.004;2022-10-28T19:37:55;27.10;;;13.15;;
29302;SDS011;60019;45.556;12.004;2022-10-28T19:43:58;24.90;;;14.88;;
29302;SDS011;60019;45.556;12.004;2022-10-28T19:50:00;28.02;;;15.95;;
29302;SDS011;60019;45.556;12.004;2022-10-28T19:56:02;27.25;;;17.08;;
29302;SDS011;60019;45.556;12.004;2022-10-28T20:02:04;31.50;;;17.27;;
29302;SDS011;60019;45.556;12.004;2022-10-28T20:08:06;28.98;;;17.00;;
29302;SDS011;60019;45.556;12.004;2022-10-28T20:14:09;28.80;;;18.13;;
29302;SDS011;60019;45.556;12.004;2022-10-28T20:20:11;27.48;;;17.77;;
29302;SDS011;60019;45.556;12.004;2022-10-28T20:26:15;29.65;;;17.85;;
29302;SDS011;60019;45.556;12.004;2022-10-28T20:32:16;37.28;;;17.23;;
29302;SDS011;60019;45.556;12.004;2022-10-28T20:38:21;29.05;;;17.25;;
29302;SDS011;60019;45.556;12.004;2022-10-28T20:44:23;26.60;;;17.75;;
29302;SDS011;60019;45.556;12.004;2022-10-28T20:50:25;24.05;;;16.27;;
29302;SDS011;60019;45.556;12.004;2022-10-28T20:56:27;29.92;;;17.52;;
29302;SDS011;60019;45.556;12.004;2022-10-28T21:02:30;24.35;;;15.57;;
29302;SDS011;60019;45.556;12.004;2022-10-28T21:08:31;25.65;;;16.35;;
29302;SDS011;60019;45.556;12.004;2022-10-28T21:14:33;25.67;;;15.73;;
29302;SDS011;60019;45.556;12.004;2022-10-28T21:20:36;23.42;;;16.17;;
29302;SDS011;60019;45.556;12.004;2022-10-28T21:26:38;29.33;;;16.92;;
29302;SDS011;60019;45.556;12.004;2022-10-28T21:32:40;32.30;;;17.73;;
29302;SDS011;60019;45.556;12.004;2022-10-28T21:38:42;26.98;;;17.75;;
29302;SDS011;60019;45.556;12.004;2022-10-28T21:44:44;27.38;;;16.15;;
29302;SDS011;60019;45.556;12.004;2022-10-28T21:50:53;22.55;;;16.38;;
29302;SDS011;60019;45.556;12.004;2022-10-28T21:56:55;26.98;;;17.38;;
29302;SDS011;60019;45.556;12.004;2022-10-28T22:02:56;27.60;;;17.38;;
29302;SDS011;60019;45.556;12.004;2022-10-28T22:08:58;25.83;;;16.05;;
29302;SDS011;60019;45.556;12.004;2022-10-28T22:15:00;38.50;;;21.02;;
29302;SDS011;60019;45.556;12.004;2022-10-28T22:21:02;38.40;;;23.00;;
29302;SDS011;60019;45.556;12.004;2022-10-28T22:27:04;31.83;;;19.55;;
29302;SDS011;60019;45.556;12.004;2022-10-28T22:33:06;31.45;;;19.42;;
29302;SDS011;60019;45.556;12.004;2022-10-28T22:39:08;29.52;;;17.45;;
29302;SDS011;60019;45.556;12.004;2022-10-28T22:45:09;27.83;;;17.52;;
29302;SDS011;60019;45.556;12.004;2022-10-28T22:51:11;29.70;;;18.60;;
29302;SDS011;60019;45.556;12.004;2022-10-28T22:57:13;31.67;;;20.27;;
29302;SDS011;60019;45.556;12.004;2022-10-28T23:03:15;25.45;;;17.52;;
29302;SDS011;60019;45.556;12.004;2022-10-28T23:09:17;30.65;;;17.40;;
29302;SDS011;60019;45.556;12.004;2022-10-28T23:15:20;30.00;;;17.73;;
29302;SDS011;60019;45.556;12.004;2022-10-28T23:21:22;25.33;;;15.90;;
29302;SDS011;60019;45.556;12.004;2022-10-28T23:27:25;27.05;;;15.57;;
29302;SDS011;60019;45.556;12.004;2022-10-28T23:33:27;29.52;;;17.75;;
29302;SDS011;60019;45.556;12.004;2022-10-28T23:39:29;26.40;;;16.83;;
29302;SDS011;60019;45.556;12.004;2022-10-28T23:45:31;28.60;;;17.15;;
29302;SDS011;60019;45.556;12.004;2022-10-28T23:51:32;20.38;;;13.82;;
29302;SDS011;60019;45.556;12.004;2022-10-28T23:57:34;24.65;;;16.33;;
